createdAt,value
2019-04-23T00:01:07.987Z,49.20
2019-04-23T00:03:35.739Z,48.90
2019-04-23T00:06:10.081Z,49.20
2019-04-23T00:08:41.798Z,50.10
2019-04-23T00:11:05.875Z,50.60
2019-04-23T00:13:39.364Z,51.10
2019-04-23T00:16:12.872Z,51.10
2019-04-23T00:21:28.409Z,51.90
2019-04-23T00:24:01.758Z,52.00
2019-04-23T00:26:33.318Z,52.00
2019-04-23T00:29:00.568Z,52.20
2019-04-23T00:31:31.432Z,53.30
2019-04-23T00:33:56.745Z,53.40
2019-04-23T00:36:32.602Z,53.90
2019-04-23T00:38:54.285Z,53.70
2019-04-23T00:41:33.398Z,53.40
2019-04-23T00:44:01.947Z,54.40
2019-04-23T00:49:06.086Z,54.00
2019-04-23T00:51:30.316Z,53.90
2019-04-23T00:54:09.154Z,54.00
2019-04-23T01:01:42.740Z,55.80
2019-04-23T01:04:10.120Z,55.60
2019-04-23T01:06:39.059Z,55.90
2019-04-23T01:09:22.755Z,56.10
2019-04-23T01:11:39.329Z,55.90
2019-04-23T01:14:11.343Z,56.30
2019-04-23T01:16:38.246Z,56.70
2019-04-23T01:19:37.527Z,57.10
2019-04-23T01:21:45.425Z,57.60
2019-04-23T01:24:38.501Z,57.80
2019-04-23T01:30:09.618Z,58.50
2019-04-23T01:32:51.341Z,59.20
2019-04-23T01:35:20.346Z,59.60
2019-04-23T01:37:44.839Z,60.30
2019-04-23T01:40:12.351Z,60.70
2019-04-23T01:42:41.930Z,60.50
2019-04-23T01:45:15.045Z,60.50
2019-04-23T01:47:45.685Z,60.60
2019-04-23T01:50:14.028Z,60.60
2019-04-23T01:52:45.706Z,60.60
2019-04-23T01:55:18.376Z,61.00
2019-04-23T01:57:47.280Z,61.50
2019-04-23T02:00:17.210Z,61.80
2019-04-23T02:02:49.963Z,61.80
2019-04-23T02:05:24.471Z,62.00
2019-04-23T02:07:50.914Z,63.00
2019-04-23T02:10:23.697Z,63.40
2019-04-23T02:12:56.850Z,63.60
2019-04-23T02:15:18.091Z,64.10
2019-04-23T02:17:52.061Z,64.30
2019-04-23T02:20:25.931Z,64.10
2019-04-23T02:25:45.757Z,64.20
2019-04-23T02:28:27.794Z,64.40
2019-04-23T02:31:03.230Z,64.90
2019-04-23T02:33:31.851Z,65.70
2019-04-23T02:35:55.531Z,65.40
2019-04-23T02:38:42.918Z,64.70
2019-04-23T02:41:04.770Z,64.10
2019-04-23T02:43:16.365Z,63.90
2019-04-23T02:53:42.307Z,62.30
2019-04-23T02:56:04.406Z,62.70
2019-04-23T02:58:43.997Z,62.60
2019-04-23T03:01:14.790Z,63.30
2019-04-23T03:08:32.741Z,67.10
2019-04-23T03:11:09.971Z,67.90
2019-04-23T03:13:35.028Z,68.20
2019-04-23T03:19:09.866Z,69.90
2019-04-23T03:22:01.608Z,71.00
2019-04-23T03:24:46.806Z,71.90
2019-04-23T03:29:49.236Z,72.80
2019-04-23T03:33:08.523Z,73.80
2019-04-23T03:37:33.959Z,78.00
2019-04-23T03:44:57.774Z,82.80
2019-04-23T03:59:58.328Z,85.60
2019-04-23T04:02:40.335Z,86.40
2019-04-23T04:04:51.722Z,88.00
2019-04-23T04:07:38.175Z,88.10
2019-04-23T04:09:52.033Z,88.10
2019-04-23T04:12:27.404Z,88.00
2019-04-23T04:15:03.822Z,87.50
2019-04-23T04:25:01.644Z,89.40
2019-04-23T04:27:36.449Z,89.10
2019-04-23T04:32:33.725Z,90.10
2019-04-23T04:35:16.202Z,90.60
2019-04-23T04:42:36.365Z,91.80
2019-04-23T04:45:28.113Z,92.20
2019-04-23T04:47:44.561Z,92.50
2019-04-23T04:50:19.228Z,92.60
2019-04-23T04:52:57.956Z,92.50
2019-04-23T04:55:16.206Z,92.50
2019-04-23T05:00:23.566Z,93.00
2019-04-23T05:02:53.049Z,93.20
2019-04-23T05:05:47.195Z,93.30
2019-04-23T05:10:20.454Z,92.80
2019-04-23T05:12:39.237Z,92.60
2019-04-23T05:15:08.147Z,92.30
2019-04-23T05:18:09.915Z,92.10
2019-04-23T05:20:36.748Z,92.20
2019-04-23T05:23:19.396Z,92.00
2019-04-23T05:25:34.652Z,92.00
2019-04-23T05:28:08.050Z,92.20
2019-04-23T05:30:39.495Z,92.30
2019-04-23T05:33:12.934Z,92.50
2019-04-23T05:36:04.982Z,92.40
2019-04-23T05:40:45.357Z,91.80
2019-04-23T05:43:08.113Z,91.30
2019-04-23T05:45:41.377Z,90.50
2019-04-23T05:48:13.274Z,90.10
2019-04-23T05:50:52.688Z,90.00
2019-04-23T05:53:14.822Z,90.00
2019-04-23T05:55:42.668Z,89.30
2019-04-23T05:58:16.570Z,88.60
2019-04-23T06:01:08.750Z,87.50
2019-04-23T06:03:16.061Z,86.30
2019-04-23T06:08:25.259Z,81.70
2019-04-23T06:10:57.211Z,81.10
2019-04-23T06:13:26.429Z,80.20
2019-04-23T06:15:55.792Z,79.70
2019-04-23T06:21:02.236Z,79.40
2019-04-23T06:23:37.923Z,78.20
2019-04-23T06:26:08.071Z,77.00
2019-04-23T06:28:27.743Z,75.30
2019-04-23T06:38:41.182Z,70.70
2019-04-23T06:41:00.841Z,68.60
2019-04-23T06:44:02.068Z,67.40
2019-04-23T06:46:24.305Z,68.50
2019-04-23T06:48:47.275Z,67.20
2019-04-23T06:51:27.401Z,65.80
2019-04-23T06:53:51.398Z,63.70
2019-04-23T06:56:25.006Z,62.00
2019-04-23T06:59:12.054Z,61.00
2019-04-23T07:01:27.062Z,59.60
2019-04-23T07:03:57.170Z,58.50
2019-04-23T07:06:31.506Z,58.10
2019-04-23T07:09:07.827Z,57.40
2019-04-23T07:11:39.392Z,56.90
2019-04-23T07:14:02.494Z,56.70
2019-04-23T07:16:31.346Z,56.10
2019-04-23T07:19:05.068Z,55.20
2019-04-23T07:21:30.376Z,54.80
2019-04-23T07:24:05.182Z,54.30
2019-04-23T07:26:36.318Z,53.90
2019-04-23T07:29:04.995Z,54.30
2019-04-23T07:31:38.181Z,53.60
2019-04-23T07:36:37.331Z,52.30
2019-04-23T07:39:20.580Z,51.00
2019-04-23T07:44:58.059Z,49.90
2019-04-23T07:47:41.499Z,50.20
2019-04-23T07:50:15.903Z,49.00
2019-04-23T07:55:09.722Z,47.80
2019-04-23T07:57:35.154Z,47.90
2019-04-23T08:00:29.734Z,47.20
2019-04-23T08:05:21.550Z,46.50
2019-04-23T08:07:42.321Z,47.60
2019-04-23T08:10:10.145Z,45.80
2019-04-23T08:12:40.210Z,44.60
2019-04-23T08:17:37.477Z,44.20
2019-04-23T08:20:30.189Z,43.60
2019-04-23T08:22:39.330Z,44.40
2019-04-23T08:25:33.834Z,44.40
2019-04-23T08:28:13.488Z,44.40
2019-04-23T08:30:37.773Z,42.60
2019-04-23T08:33:13.000Z,44.20
2019-04-23T08:35:43.649Z,43.80
2019-04-23T08:38:29.464Z,43.40
2019-04-23T08:40:43.195Z,43.00
2019-04-23T08:46:05.832Z,42.70
2019-04-23T08:48:44.456Z,42.50
2019-04-23T08:51:26.234Z,42.30
2019-04-23T08:56:08.892Z,42.00
2019-04-23T08:58:53.683Z,41.60
2019-04-23T09:01:13.629Z,40.90
2019-04-23T09:03:42.403Z,40.80
2019-04-23T09:08:43.696Z,41.00
2019-04-23T09:11:30.866Z,41.30
2019-04-23T09:13:53.692Z,40.60
2019-04-23T09:16:13.653Z,40.70
2019-04-23T09:18:47.363Z,40.80
2019-04-23T09:26:15.722Z,40.90
2019-04-23T09:28:53.309Z,40.00
2019-04-23T09:32:00.781Z,40.40
2019-04-23T09:34:18.817Z,38.90
2019-04-23T09:37:19.129Z,38.70
2019-04-23T09:40:16.759Z,39.60
2019-04-23T09:53:09.639Z,37.50
2019-04-23T09:58:07.907Z,36.10
2019-04-23T10:03:01.533Z,36.30
2019-04-23T10:05:26.180Z,36.70
2019-04-23T10:07:54.390Z,36.70
2019-04-23T10:10:16.426Z,36.10
2019-04-23T10:12:46.074Z,35.60
2019-04-23T10:15:22.864Z,35.60
2019-04-23T10:17:46.416Z,35.60
2019-04-23T10:20:16.418Z,36.40
2019-04-23T10:22:46.249Z,32.30
2019-04-23T10:25:15.406Z,32.80
2019-04-23T10:27:45.367Z,31.20
2019-04-23T10:30:15.423Z,32.30
2019-04-23T10:32:45.284Z,32.10
2019-04-23T10:35:22.101Z,30.90
2019-04-23T10:37:54.043Z,30.80
2019-04-23T10:40:22.939Z,31.40
2019-04-23T10:42:48.347Z,32.10
2019-04-23T10:45:42.548Z,32.00
2019-04-23T10:48:45.886Z,32.70
2019-04-23T10:51:16.688Z,33.80
2019-04-23T10:53:46.479Z,33.10
2019-04-23T10:56:31.011Z,33.70
2019-04-23T10:58:45.534Z,33.60
2019-04-23T11:01:20.861Z,32.40
2019-04-23T11:04:13.702Z,33.00
2019-04-23T11:09:07.908Z,32.10
2019-04-23T11:11:36.199Z,30.60
2019-04-23T11:14:05.000Z,32.20
2019-04-23T11:19:10.730Z,31.00
2019-04-23T11:21:38.472Z,31.60
2019-04-23T11:24:11.714Z,31.90
2019-04-23T11:26:37.143Z,33.10
2019-04-23T11:29:14.471Z,31.50
2019-04-23T11:39:05.662Z,29.40
2019-04-23T11:41:51.504Z,29.00
2019-04-23T11:49:34.586Z,27.90
2019-04-23T11:54:17.734Z,26.40
2019-04-23T11:59:25.905Z,27.60
2019-04-23T12:07:29.509Z,26.30
2019-04-23T12:10:20.032Z,27.60
2019-04-23T12:12:39.628Z,26.00
2019-04-23T12:15:13.348Z,26.30
2019-04-23T12:17:55.934Z,26.30
2019-04-23T12:20:28.555Z,26.00
2019-04-23T12:27:43.632Z,26.70
2019-04-23T12:33:11.104Z,27.00
2019-04-23T12:35:22.429Z,26.80
2019-04-23T12:38:17.503Z,27.30
2019-04-23T12:40:40.471Z,27.20
2019-04-23T12:43:17.379Z,28.10
2019-04-23T12:48:26.233Z,27.80
2019-04-23T12:50:51.633Z,28.20
2019-04-23T12:53:29.444Z,27.20
2019-04-23T12:55:46.353Z,28.20
2019-04-23T12:58:22.038Z,26.90
2019-04-23T13:00:38.935Z,27.60
2019-04-23T13:05:50.769Z,26.90
2019-04-23T13:15:58.301Z,26.50
2019-04-23T13:18:34.093Z,26.20
2019-04-23T13:20:51.646Z,25.40
2019-04-23T13:23:30.612Z,25.30
2019-04-23T13:26:00.920Z,25.20
2019-04-23T13:41:17.303Z,28.10
2019-04-23T13:43:48.404Z,28.20
2019-04-23T13:46:14.135Z,28.80
2019-04-23T13:48:40.038Z,29.20
2019-04-23T13:51:22.726Z,29.20
2019-04-23T13:53:49.626Z,29.30
2019-04-23T14:01:25.812Z,30.40
2019-04-23T14:03:48.084Z,30.90
2019-04-23T14:11:23.195Z,31.50
2019-04-23T14:18:59.093Z,31.70
2019-04-23T14:21:24.879Z,32.00
2019-04-23T14:28:52.673Z,33.20
2019-04-23T14:31:23.124Z,33.20
2019-04-23T14:39:18.738Z,34.70
2019-04-23T14:41:26.129Z,34.60
2019-04-23T14:44:20.141Z,34.40
2019-04-23T14:46:56.308Z,34.50
2019-04-23T14:49:11.631Z,34.60
2019-04-23T14:51:58.895Z,35.00
2019-04-23T14:54:24.891Z,35.90
2019-04-23T14:56:51.434Z,35.50
2019-04-23T14:59:32.168Z,36.20
2019-04-23T15:01:49.115Z,35.90
2019-04-23T15:04:25.233Z,36.80
2019-04-23T15:09:28.857Z,35.80
2019-04-23T15:12:01.798Z,34.60
2019-04-23T15:14:27.167Z,33.40
2019-04-23T15:19:37.917Z,31.20
2019-04-23T15:24:43.993Z,29.60
2019-04-23T15:29:19.996Z,29.00
2019-04-23T15:34:32.465Z,29.10
2019-04-23T15:44:45.314Z,28.60
2019-04-23T15:47:23.082Z,28.20
2019-04-23T15:49:47.399Z,28.80
2019-04-23T15:52:14.300Z,28.50
2019-04-23T15:54:49.730Z,29.20
2019-04-23T15:57:18.097Z,30.10
2019-04-23T15:59:47.819Z,29.40
2019-04-23T16:01:49.211Z,29.00
2019-04-23T16:04:20.102Z,28.70
2019-04-23T16:06:49.796Z,27.70
2019-04-23T16:09:50.939Z,28.30
2019-04-23T16:12:09.923Z,28.80
2019-04-23T16:14:58.416Z,28.40
2019-04-23T16:22:36.597Z,27.00
2019-04-23T16:25:17.310Z,26.60
2019-04-23T16:27:40.207Z,26.50
2019-04-23T16:30:14.185Z,26.80
2019-04-23T16:32:58.116Z,26.80
2019-04-23T16:38:07.736Z,26.70
2019-04-23T16:40:31.214Z,28.20
2019-04-23T16:43:05.101Z,28.90
2019-04-23T16:48:09.643Z,30.00
2019-04-23T16:50:31.029Z,30.40
2019-04-23T16:53:05.263Z,31.00
2019-04-23T16:55:34.473Z,31.80
2019-04-23T16:58:03.604Z,32.40
2019-04-23T17:03:13.015Z,34.00
2019-04-23T17:05:39.297Z,34.30
2019-04-23T17:08:37.414Z,35.40
2019-04-23T17:10:48.133Z,35.40
2019-04-23T17:15:48.417Z,36.60
2019-04-23T17:18:11.955Z,37.20
2019-04-23T17:20:47.443Z,37.60
2019-04-23T17:23:25.698Z,38.80
2019-04-23T17:25:48.330Z,39.50
2019-04-23T17:28:24.664Z,39.90
2019-04-23T17:31:04.004Z,41.00
2019-04-23T17:33:27.587Z,41.40
2019-04-23T17:36:30.620Z,42.30
2019-04-23T17:39:05.382Z,42.80
2019-04-23T17:44:09.639Z,44.40
2019-04-23T17:46:37.606Z,44.20
2019-04-23T17:49:04.557Z,45.20
2019-04-23T17:51:25.965Z,45.60
2019-04-23T17:54:13.976Z,46.20
2019-04-23T17:56:47.772Z,46.40
2019-04-23T18:01:45.238Z,47.40
2019-04-23T18:04:20.805Z,47.80
2019-04-23T18:06:41.333Z,48.90
2019-04-23T18:12:01.081Z,49.20
2019-04-23T18:14:15.147Z,49.50
2019-04-23T18:16:46.286Z,50.10
2019-04-23T18:19:12.833Z,50.60
2019-04-23T18:22:07.318Z,51.00
2019-04-23T18:24:59.095Z,51.30
2019-04-23T18:27:23.463Z,51.80
2019-04-23T18:32:49.466Z,52.40
2019-04-23T18:37:45.327Z,53.40
2019-04-23T18:40:08.574Z,54.10
2019-04-23T18:42:45.154Z,54.40
2019-04-23T18:45:22.904Z,54.90
2019-04-23T18:48:03.021Z,55.20
2019-04-23T18:50:22.715Z,55.70
2019-04-23T18:52:58.518Z,56.20
2019-04-23T18:55:24.422Z,56.60
2019-04-23T18:57:55.382Z,56.70
2019-04-23T19:00:26.852Z,57.40
2019-04-23T19:03:01.195Z,57.70
2019-04-23T19:05:49.155Z,58.50
2019-04-23T19:08:49.099Z,59.10
2019-04-23T19:10:57.428Z,59.90
2019-04-23T19:13:24.955Z,61.10
2019-04-23T19:16:08.045Z,62.30
2019-04-23T19:18:32.066Z,63.40
2019-04-23T19:25:59.602Z,65.50
2019-04-23T19:28:44.534Z,66.10
2019-04-23T19:31:40.481Z,66.70
2019-04-23T19:36:52.582Z,68.70
2019-04-23T19:39:20.441Z,69.40
2019-04-23T19:41:57.456Z,70.20
2019-04-23T19:44:08.941Z,71.00
2019-04-23T19:51:47.835Z,71.80
2019-04-23T19:56:51.337Z,72.80
2019-04-23T19:59:14.099Z,73.90
2019-04-23T20:01:46.970Z,75.90
2019-04-23T20:04:15.065Z,79.80
2019-04-23T20:07:05.527Z,80.70
2019-04-23T20:09:37.929Z,82.80
2019-04-23T20:12:06.260Z,85.50
2019-04-23T20:14:19.559Z,85.70
2019-04-23T20:19:24.172Z,87.10
2019-04-23T20:27:01.194Z,89.40
2019-04-23T20:30:03.818Z,90.20
2019-04-23T20:31:33.487Z,87.80
2019-04-23T20:32:06.330Z,88.80
2019-04-23T20:33:00.631Z,90.40
2019-04-23T20:35:05.458Z,90.60
2019-04-23T20:37:42.766Z,90.80
2019-04-23T20:42:43.752Z,92.30
2019-04-23T20:47:25.764Z,92.70
2019-04-23T20:50:04.144Z,93.10
2019-04-23T20:52:13.967Z,93.40
2019-04-23T20:55:02.089Z,93.80
2019-04-23T20:57:47.362Z,93.90
2019-04-23T21:00:30.331Z,93.90
2019-04-23T21:05:34.302Z,94.60
2019-04-23T21:08:14.864Z,94.80
2019-04-23T21:15:45.708Z,95.60
2019-04-23T21:20:54.104Z,95.30
2019-04-23T21:28:42.945Z,95.20
2019-04-23T21:33:43.902Z,95.00
2019-04-23T21:36:25.402Z,94.90
2019-04-23T21:39:29.417Z,95.20
2019-04-23T21:44:13.431Z,96.30
2019-04-23T21:54:13.215Z,96.70
2019-04-23T21:56:50.038Z,96.90
2019-04-23T21:59:10.233Z,97.10
2019-04-23T22:04:39.991Z,97.60
2019-04-23T22:09:31.649Z,98.00
2019-04-23T22:12:05.891Z,98.30
2019-04-23T22:14:27.430Z,98.40
2019-04-23T22:24:27.319Z,99.30
2019-04-23T22:26:58.292Z,99.30
2019-04-23T22:29:33.094Z,99.40
2019-04-23T22:31:54.957Z,99.40
2019-04-23T22:34:40.279Z,99.50
2019-04-23T22:39:39.603Z,99.90
2019-04-23T22:42:22.303Z,99.90
2019-04-23T22:44:56.202Z,99.90
2019-04-23T22:47:31.598Z,99.90
2019-04-23T22:49:53.120Z,99.90
2019-04-23T22:54:57.295Z,99.90
2019-04-23T22:57:09.564Z,99.90
2019-04-23T23:00:04.394Z,99.90
2019-04-23T23:07:48.833Z,99.90
2019-04-23T23:10:08.744Z,99.90
2019-04-23T23:13:02.291Z,99.90
2019-04-23T23:15:08.154Z,99.90
2019-04-23T23:17:48.592Z,99.90
2019-04-23T23:20:14.066Z,99.90
2019-04-23T23:22:51.752Z,99.90
2019-04-23T23:25:18.874Z,99.90
2019-04-23T23:30:18.346Z,99.90
2019-04-23T23:32:51.740Z,99.90
2019-04-23T23:35:24.244Z,99.90
2019-04-23T23:37:44.248Z,99.90
2019-04-23T23:42:56.249Z,99.90
2019-04-23T23:47:48.309Z,99.90
2019-04-23T23:50:36.576Z,99.90
2019-04-23T23:53:00.168Z,99.90
2019-04-23T23:57:50.381Z,99.90
